sensor_id;sensor_type;location;lat;lon;timestamp;temperature;humidity
21716;DHT22;11020;49.864;8.640;2022-07-09T00:01:01;25.10;43.80
21716;DHT22;11020;49.864;8.640;2022-07-09T00:03:27;25.10;43.80
21716;DHT22;11020;49.864;8.640;2022-07-09T00:05:52;25.10;44.50
21716;DHT22;11020;49.864;8.640;2022-07-09T00:08:18;25.10;43.80
21716;DHT22;11020;49.864;8.640;2022-07-09T00:10:43;25.10;43.80
21716;DHT22;11020;49.864;8.640;2022-07-09T00:13:09;25.10;43.80
21716;DHT22;11020;49.864;8.640;2022-07-09T00:15:35;25.10;43.80
21716;DHT22;11020;49.864;8.640;2022-07-09T00:18:01;25.10;43.90
21716;DHT22;11020;49.864;8.640;2022-07-09T00:20:26;25.10;43.90
21716;DHT22;11020;49.864;8.640;2022-07-09T00:22:52;25.10;43.80
21716;DHT22;11020;49.864;8.640;2022-07-09T00:25:17;25.10;43.80
21716;DHT22;11020;49.864;8.640;2022-07-09T00:27:43;25.10;43.90
21716;DHT22;11020;49.864;8.640;2022-07-09T00:30:09;25.10;43.90
21716;DHT22;11020;49.864;8.640;2022-07-09T00:32:34;25.10;43.90
21716;DHT22;11020;49.864;8.640;2022-07-09T00:35:00;25.10;44.00
21716;DHT22;11020;49.864;8.640;2022-07-09T00:37:25;25.10;44.00
21716;DHT22;11020;49.864;8.640;2022-07-09T00:39:51;25.10;44.00
21716;DHT22;11020;49.864;8.640;2022-07-09T00:42:17;25.10;44.00
21716;DHT22;11020;49.864;8.640;2022-07-09T00:44:42;25.10;44.00
21716;DHT22;11020;49.864;8.640;2022-07-09T00:47:08;25.10;44.10
21716;DHT22;11020;49.864;8.640;2022-07-09T00:49:41;25.10;44.10
21716;DHT22;11020;49.864;8.640;2022-07-09T00:52:10;25.10;44.10
21716;DHT22;11020;49.864;8.640;2022-07-09T00:54:36;25.10;44.10
21716;DHT22;11020;49.864;8.640;2022-07-09T00:57:03;25.00;44.10
21716;DHT22;11020;49.864;8.640;2022-07-09T00:59:32;25.00;44.20
21716;DHT22;11020;49.864;8.640;2022-07-09T01:01:59;25.00;44.20
21716;DHT22;11020;49.864;8.640;2022-07-09T01:04:25;25.00;44.20
21716;DHT22;11020;49.864;8.640;2022-07-09T01:06:50;25.00;44.30
21716;DHT22;11020;49.864;8.640;2022-07-09T01:09:16;25.00;44.30
21716;DHT22;11020;49.864;8.640;2022-07-09T01:11:42;25.00;44.30
21716;DHT22;11020;49.864;8.640;2022-07-09T01:14:07;25.00;44.30
21716;DHT22;11020;49.864;8.640;2022-07-09T01:16:34;25.00;44.30
21716;DHT22;11020;49.864;8.640;2022-07-09T01:19:00;25.00;44.30
21716;DHT22;11020;49.864;8.640;2022-07-09T01:21:26;25.00;44.30
21716;DHT22;11020;49.864;8.640;2022-07-09T01:23:52;25.00;44.30
21716;DHT22;11020;49.864;8.640;2022-07-09T01:26:17;25.00;44.30
21716;DHT22;11020;49.864;8.640;2022-07-09T01:28:45;25.00;44.30
21716;DHT22;11020;49.864;8.640;2022-07-09T01:31:11;25.00;44.30
21716;DHT22;11020;49.864;8.640;2022-07-09T01:33:37;25.00;44.30
21716;DHT22;11020;49.864;8.640;2022-07-09T01:36:02;25.00;44.40
21716;DHT22;11020;49.864;8.640;2022-07-09T01:38:28;25.00;44.40
21716;DHT22;11020;49.864;8.640;2022-07-09T01:40:53;25.00;44.40
21716;DHT22;11020;49.864;8.640;2022-07-09T01:43:19;25.00;44.40
